createdAt,value
2023-11-05T00:00:38.235Z,10.90
2023-11-05T00:03:02.666Z,10.90
2023-11-05T00:05:26.740Z,10.90
2023-11-05T00:07:50.561Z,10.90
2023-11-05T00:10:14.776Z,10.90
2023-11-05T00:12:39.048Z,10.80
2023-11-05T00:15:02.982Z,10.80
2023-11-05T00:17:28.383Z,10.80
2023-11-05T00:19:52.445Z,10.80
2023-11-05T00:22:16.365Z,10.80
2023-11-05T00:24:40.219Z,10.80
2023-11-05T00:27:04.161Z,10.80
2023-11-05T00:29:28.065Z,10.80
2023-11-05T00:31:53.367Z,10.70
2023-11-05T00:34:18.721Z,10.70
2023-11-05T00:36:42.885Z,10.70
2023-11-05T00:39:08.017Z,10.70
2023-11-05T00:41:33.215Z,10.70
2023-11-05T00:43:57.383Z,10.70
2023-11-05T00:46:21.666Z,10.70
2023-11-05T00:48:45.882Z,10.60
2023-11-05T00:51:12.298Z,10.60
2023-11-05T00:53:36.302Z,10.50
2023-11-05T00:56:00.433Z,10.50
2023-11-05T00:58:26.773Z,10.50
2023-11-05T01:00:50.939Z,10.40
2023-11-05T01:03:14.982Z,10.40
2023-11-05T01:05:38.999Z,10.40
2023-11-05T01:08:04.454Z,10.40
2023-11-05T01:10:28.621Z,10.40
2023-11-05T01:12:53.065Z,10.30
2023-11-05T01:15:17.199Z,10.30
2023-11-05T01:17:41.715Z,10.30
2023-11-05T01:20:08.443Z,10.30
2023-11-05T01:22:32.301Z,10.20
2023-11-05T01:24:57.610Z,10.20
2023-11-05T01:27:21.534Z,10.20
2023-11-05T01:29:45.502Z,10.10
2023-11-05T01:32:09.711Z,10.10
2023-11-05T01:34:33.649Z,10.10
2023-11-05T01:36:57.728Z,10.10
2023-11-05T01:39:21.594Z,10.10
2023-11-05T01:41:46.831Z,10.10
2023-11-05T01:44:11.106Z,10.10
2023-11-05T01:46:35.318Z,10.10
2023-11-05T01:49:00.250Z,10.10
2023-11-05T01:51:24.400Z,10.00
2023-11-05T01:53:51.686Z,10.00
2023-11-05T01:56:18.269Z,10.00
2023-11-05T01:58:44.172Z,9.90
2023-11-05T02:01:10.951Z,9.90
2023-11-05T02:03:35.192Z,9.80
2023-11-05T02:05:59.484Z,9.80
2023-11-05T02:08:23.388Z,9.70
2023-11-05T02:10:48.515Z,9.70
2023-11-05T02:13:12.371Z,9.70
2023-11-05T02:15:37.657Z,9.60
2023-11-05T02:18:01.681Z,9.60
2023-11-05T02:20:26.443Z,9.60
2023-11-05T02:22:53.789Z,9.60
2023-11-05T02:25:20.894Z,9.60
2023-11-05T02:27:44.696Z,9.60
2023-11-05T02:30:09.840Z,9.60
2023-11-05T02:32:33.948Z,9.60
2023-11-05T02:34:57.801Z,9.60
2023-11-05T02:37:21.713Z,9.60
2023-11-05T02:39:45.616Z,9.60
2023-11-05T02:42:11.269Z,9.60
2023-11-05T02:44:35.058Z,9.60
2023-11-05T02:46:59.123Z,9.60
2023-11-05T02:49:23.025Z,9.60
2023-11-05T02:51:47.146Z,9.60
2023-11-05T02:54:11.025Z,9.60
2023-11-05T02:56:34.894Z,9.60
2023-11-05T02:59:00.215Z,9.60
2023-11-05T03:01:25.393Z,9.60
2023-11-05T03:03:49.457Z,9.60
2023-11-05T03:06:13.214Z,9.60
2023-11-05T03:08:37.188Z,9.60
2023-11-05T03:11:01.012Z,9.60
2023-11-05T03:13:24.993Z,9.60
2023-11-05T03:15:50.476Z,9.60
2023-11-05T03:18:15.432Z,9.50
2023-11-05T03:20:39.350Z,9.50
2023-11-05T03:23:03.850Z,9.50
2023-11-05T03:25:28.332Z,9.50
2023-11-05T03:27:52.745Z,9.50
2023-11-05T03:30:16.814Z,9.50
2023-11-05T03:32:42.452Z,9.40
2023-11-05T03:35:09.377Z,9.40
2023-11-05T03:37:33.171Z,9.40
2023-11-05T03:39:57.474Z,9.30
2023-11-05T03:42:21.366Z,9.30
2023-11-05T03:44:45.723Z,9.30
2023-11-05T03:47:09.620Z,9.30
2023-11-05T03:49:35.398Z,9.30
2023-11-05T03:51:59.681Z,9.30
2023-11-05T03:54:23.576Z,9.20
2023-11-05T03:56:47.991Z,9.20
2023-11-05T03:59:12.057Z,9.20
2023-11-05T04:01:35.996Z,9.20
2023-11-05T04:04:01.981Z,9.20
2023-11-05T04:06:27.216Z,9.20
2023-11-05T04:08:51.302Z,9.20
2023-11-05T04:11:15.280Z,9.20
2023-11-05T04:13:39.357Z,9.10
2023-11-05T04:16:03.412Z,9.10
2023-11-05T04:18:27.443Z,9.10
2023-11-05T04:20:51.190Z,9.00
2023-11-05T04:23:16.555Z,9.00
2023-11-05T04:25:40.582Z,9.00
2023-11-05T04:28:05.569Z,9.00
2023-11-05T04:30:29.469Z,9.00
2023-11-05T04:32:53.524Z,9.10
2023-11-05T04:35:17.672Z,9.00
2023-11-05T04:37:41.528Z,9.10
2023-11-05T04:40:08.306Z,9.10
2023-11-05T04:42:32.311Z,9.10
2023-11-05T04:44:56.117Z,9.00
2023-11-05T04:47:19.999Z,9.00
2023-11-05T04:49:43.854Z,9.00
2023-11-05T04:52:07.910Z,9.10
2023-11-05T04:54:31.931Z,9.10
2023-11-05T04:56:57.414Z,9.10
2023-11-05T04:59:21.332Z,9.10
2023-11-05T05:01:45.509Z,9.10
2023-11-05T05:04:09.571Z,9.10
2023-11-05T05:06:33.678Z,9.20
2023-11-05T05:08:57.481Z,9.20
2023-11-05T05:11:21.447Z,9.30
2023-11-05T05:13:47.060Z,9.40
2023-11-05T05:16:13.789Z,9.50
2023-11-05T05:18:37.998Z,9.60
2023-11-05T05:21:03.376Z,9.80
2023-11-05T05:23:27.521Z,9.90
2023-11-05T05:25:51.418Z,10.00
2023-11-05T05:28:15.285Z,10.20
2023-11-05T05:30:40.513Z,10.50
2023-11-05T05:33:04.824Z,10.70
2023-11-05T05:35:32.243Z,11.00
2023-11-05T05:37:56.559Z,11.30
2023-11-05T05:40:20.507Z,11.70
2023-11-05T05:42:44.520Z,12.00
2023-11-05T05:45:09.107Z,12.40
2023-11-05T05:47:34.313Z,12.90
2023-11-05T05:49:58.163Z,13.30
2023-11-05T05:52:22.051Z,13.70
2023-11-05T05:54:46.113Z,14.10
2023-11-05T05:57:10.089Z,14.20
2023-11-05T05:59:34.606Z,14.40
2023-11-05T06:01:58.529Z,15.00
2023-11-05T06:04:23.740Z,15.70
2023-11-05T06:06:47.783Z,16.50
2023-11-05T06:09:13.741Z,17.30
2023-11-05T06:11:37.921Z,17.90
2023-11-05T06:14:01.733Z,18.60
2023-11-05T06:16:25.738Z,18.90
2023-11-05T06:18:50.133Z,19.40
2023-11-05T06:21:15.459Z,20.00
2023-11-05T06:23:39.317Z,20.40
2023-11-05T06:26:03.395Z,20.80
2023-11-05T06:28:27.287Z,21.90
2023-11-05T06:30:51.285Z,21.80
2023-11-05T06:33:15.305Z,22.20
2023-11-05T06:35:39.578Z,22.50
2023-11-05T06:38:04.894Z,23.60
2023-11-05T06:40:28.806Z,24.10
2023-11-05T06:42:52.562Z,24.40
2023-11-05T06:45:16.391Z,24.50
2023-11-05T06:47:40.534Z,25.00
2023-11-05T06:50:07.621Z,25.50
2023-11-05T06:52:31.562Z,25.50
2023-11-05T06:54:57.690Z,25.30
2023-11-05T06:57:21.729Z,26.00
2023-11-05T06:59:45.617Z,25.30
2023-11-05T07:02:11.780Z,26.00
2023-11-05T07:04:35.842Z,26.20
2023-11-05T07:07:01.280Z,26.00
2023-11-05T07:09:25.287Z,25.10
2023-11-05T07:11:51.602Z,24.70
2023-11-05T07:14:16.619Z,24.10
2023-11-05T07:16:40.566Z,24.10
2023-11-05T07:19:04.675Z,24.10
2023-11-05T07:21:28.459Z,23.50
2023-11-05T07:23:52.781Z,24.00
2023-11-05T07:26:17.008Z,24.70
2023-11-05T07:28:43.476Z,25.10
2023-11-05T07:31:07.496Z,25.40
2023-11-05T07:33:31.410Z,24.90
2023-11-05T07:35:55.282Z,25.10
2023-11-05T07:38:23.027Z,25.30
2023-11-05T07:40:52.229Z,25.10
2023-11-05T07:43:16.376Z,25.30
2023-11-05T07:45:41.946Z,25.30
2023-11-05T07:48:06.759Z,25.10
2023-11-05T07:50:30.912Z,25.20
2023-11-05T07:52:54.949Z,25.70
2023-11-05T07:55:20.400Z,26.20
2023-11-05T07:57:44.823Z,27.00
2023-11-05T08:00:09.764Z,28.40
2023-11-05T08:02:38.335Z,29.30
2023-11-05T08:05:02.497Z,30.00
2023-11-05T08:07:30.593Z,30.10
2023-11-05T08:09:54.996Z,30.60
2023-11-05T08:12:19.929Z,30.80
2023-11-05T08:14:46.387Z,31.00
2023-11-05T08:17:10.595Z,31.40
2023-11-05T08:19:36.583Z,31.40
2023-11-05T08:22:01.345Z,31.50
2023-11-05T08:24:25.540Z,32.60
2023-11-05T08:26:49.897Z,32.90
2023-11-05T08:29:15.850Z,32.70
2023-11-05T08:31:40.297Z,33.60
2023-11-05T08:34:04.292Z,33.20
2023-11-05T08:36:29.928Z,34.30
2023-11-05T08:38:53.851Z,34.90
2023-11-05T08:41:18.759Z,35.30
2023-11-05T08:43:44.586Z,35.30
2023-11-05T08:46:08.713Z,36.20
2023-11-05T08:48:33.488Z,37.00
2023-11-05T08:50:58.103Z,36.80
2023-11-05T08:53:25.444Z,34.90
2023-11-05T08:55:49.766Z,35.30
2023-11-05T08:58:15.184Z,36.70
2023-11-05T09:00:39.214Z,35.70
2023-11-05T09:03:08.366Z,35.90
2023-11-05T09:05:32.385Z,35.80
2023-11-05T09:07:57.400Z,34.30
2023-11-05T09:10:23.164Z,31.90
2023-11-05T09:12:47.250Z,30.10
2023-11-05T09:15:11.765Z,28.90
2023-11-05T09:17:35.809Z,28.60
2023-11-05T09:19:59.848Z,28.10
2023-11-05T09:22:23.839Z,28.20
2023-11-05T09:24:47.928Z,27.20
2023-11-05T09:27:13.299Z,26.10
2023-11-05T09:29:39.819Z,25.60
2023-11-05T09:32:03.940Z,26.60
2023-11-05T09:34:28.200Z,25.10
2023-11-05T09:36:52.247Z,24.80
2023-11-05T09:39:19.982Z,24.50
2023-11-05T09:41:44.107Z,25.40
2023-11-05T09:44:23.010Z,29.10
2023-11-05T09:46:48.038Z,31.70
2023-11-05T09:49:14.175Z,32.60
2023-11-05T09:51:38.597Z,31.70
2023-11-05T09:54:14.297Z,28.90
2023-11-05T09:56:38.438Z,27.30
2023-11-05T09:59:04.609Z,28.80
2023-11-05T10:01:37.054Z,31.20
2023-11-05T10:04:01.631Z,31.60
2023-11-05T10:06:25.591Z,31.00
2023-11-05T10:08:49.550Z,33.90
2023-11-05T10:11:13.799Z,34.40
2023-11-05T10:13:37.920Z,36.20
2023-11-05T10:16:02.585Z,38.00
2023-11-05T10:18:29.511Z,39.70
2023-11-05T10:20:56.926Z,37.90
2023-11-05T10:23:21.945Z,37.70
2023-11-05T10:25:51.781Z,37.20
2023-11-05T10:28:25.169Z,36.00
2023-11-05T10:30:51.735Z,33.60
2023-11-05T10:33:16.546Z,28.90
2023-11-05T10:35:42.304Z,25.80
2023-11-05T10:38:06.856Z,23.90
2023-11-05T10:40:31.365Z,22.80
2023-11-05T10:42:55.328Z,22.00
2023-11-05T10:45:22.852Z,21.50
2023-11-05T10:47:47.901Z,20.70
2023-11-05T10:50:17.064Z,20.40
2023-11-05T10:52:47.062Z,20.20
2023-11-05T10:55:12.829Z,19.90
2023-11-05T10:57:41.965Z,19.80
2023-11-05T11:00:09.920Z,19.70
2023-11-05T11:03:25.011Z,19.60
2023-11-05T11:06:13.108Z,19.60
2023-11-05T11:08:38.552Z,19.80
2023-11-05T11:11:11.089Z,19.80
2023-11-05T11:13:35.384Z,19.80
2023-11-05T11:16:01.628Z,19.70
2023-11-05T11:18:29.552Z,19.60
2023-11-05T11:20:57.329Z,19.60
2023-11-05T11:23:23.071Z,19.50
2023-11-05T11:26:02.681Z,19.50
2023-11-05T11:28:26.719Z,19.60
2023-11-05T11:30:51.494Z,19.70
2023-11-05T11:33:17.878Z,19.90
2023-11-05T11:35:43.075Z,20.10
2023-11-05T11:38:07.205Z,20.10
2023-11-05T11:40:34.126Z,20.00
2023-11-05T11:43:01.226Z,20.00
2023-11-05T11:45:25.443Z,19.80
2023-11-05T11:47:49.561Z,19.70
2023-11-05T11:50:52.044Z,19.50
2023-11-05T11:53:26.925Z,19.40
2023-11-05T11:55:52.743Z,19.40
2023-11-05T11:58:16.727Z,19.50
2023-11-05T12:00:42.681Z,19.50
2023-11-05T12:03:06.806Z,19.60
2023-11-05T12:05:30.946Z,19.70
2023-11-05T12:07:55.064Z,19.80
2023-11-05T12:10:22.471Z,19.80
2023-11-05T12:12:47.982Z,19.90
2023-11-05T12:15:13.791Z,19.90
2023-11-05T12:17:40.112Z,20.00
2023-11-05T12:20:06.174Z,20.00
2023-11-05T12:22:30.919Z,20.00
2023-11-05T12:24:54.752Z,19.90
2023-11-05T12:27:20.710Z,19.90
2023-11-05T12:29:45.244Z,19.90
2023-11-05T12:32:09.373Z,20.00
2023-11-05T12:34:33.242Z,20.00
2023-11-05T12:36:57.100Z,20.10
2023-11-05T12:39:21.004Z,20.10
2023-11-05T12:41:45.677Z,20.10
2023-11-05T12:44:11.011Z,20.10
2023-11-05T12:46:35.060Z,20.00
2023-11-05T12:48:59.016Z,20.00
2023-11-05T12:51:22.865Z,20.10
2023-11-05T12:53:46.989Z,20.10
2023-11-05T12:56:11.625Z,20.00
2023-11-05T12:58:36.679Z,20.00
2023-11-05T13:01:02.809Z,20.00
2023-11-05T13:03:29.700Z,20.00
2023-11-05T13:05:55.554Z,20.00
2023-11-05T13:08:21.408Z,20.00
2023-11-05T13:10:45.446Z,20.00
2023-11-05T13:13:09.461Z,20.00
2023-11-05T13:15:34.136Z,20.00
2023-11-05T13:17:59.496Z,20.00
2023-11-05T13:20:26.407Z,20.10
2023-11-05T13:22:51.513Z,20.10
2023-11-05T13:25:15.380Z,20.10
2023-11-05T13:27:42.800Z,20.10
2023-11-05T13:30:10.120Z,20.10
2023-11-05T13:32:37.879Z,20.00
2023-11-05T13:35:03.610Z,19.90
2023-11-05T13:37:29.008Z,19.90
2023-11-05T13:39:53.213Z,19.90
2023-11-05T13:42:17.127Z,19.90
2023-11-05T13:44:40.961Z,19.90
2023-11-05T13:47:05.066Z,19.90
2023-11-05T13:49:28.926Z,19.80
2023-11-05T13:52:06.073Z,19.80
2023-11-05T13:54:30.341Z,19.70
2023-11-05T13:56:55.845Z,19.70
2023-11-05T13:59:20.307Z,19.70
2023-11-05T14:01:44.835Z,19.60
2023-11-05T14:04:08.788Z,19.60
2023-11-05T14:06:32.856Z,19.60
2023-11-05T14:09:00.036Z,19.50
2023-11-05T14:11:25.552Z,19.50
2023-11-05T14:13:49.863Z,19.50
2023-11-05T14:16:15.688Z,19.40
2023-11-05T14:18:40.845Z,19.40
2023-11-05T14:21:05.144Z,19.30
2023-11-05T14:23:29.112Z,19.30
2023-11-05T14:25:55.121Z,19.30
2023-11-05T14:28:19.053Z,19.20
2023-11-05T14:30:42.820Z,19.10
2023-11-05T14:33:07.174Z,19.10
2023-11-05T14:35:32.144Z,19.00
2023-11-05T14:37:58.840Z,18.90
2023-11-05T14:40:25.098Z,18.90
2023-11-05T14:42:50.730Z,18.80
2023-11-05T14:45:22.194Z,18.70
2023-11-05T14:47:49.653Z,18.50
2023-11-05T14:50:13.553Z,18.50
2023-11-05T14:52:37.545Z,18.40
2023-11-05T14:55:01.447Z,18.40
2023-11-05T14:57:25.315Z,18.30
2023-11-05T14:59:50.605Z,18.30
2023-11-05T15:02:15.276Z,18.20
2023-11-05T15:04:39.558Z,18.10
2023-11-05T15:07:03.484Z,18.00
2023-11-05T15:09:27.252Z,17.90
2023-11-05T15:11:51.121Z,17.70
2023-11-05T15:14:15.115Z,17.50
2023-11-05T15:16:43.229Z,17.20
2023-11-05T15:19:08.418Z,17.00
2023-11-05T15:21:32.602Z,16.80
2023-11-05T15:23:56.609Z,16.60
2023-11-05T15:26:26.937Z,16.40
2023-11-05T15:28:50.952Z,16.30
2023-11-05T15:31:15.939Z,16.10
2023-11-05T15:33:43.472Z,16.00
2023-11-05T15:36:10.746Z,15.90
2023-11-05T15:38:35.817Z,15.70
2023-11-05T15:40:59.812Z,15.60
2023-11-05T15:43:23.703Z,15.50
2023-11-05T15:45:48.338Z,15.50
2023-11-05T15:48:12.162Z,15.30
2023-11-05T15:50:37.328Z,15.30
2023-11-05T15:53:01.372Z,15.20
2023-11-05T15:55:27.570Z,15.10
2023-11-05T15:57:51.509Z,15.00
2023-11-05T16:00:16.343Z,14.90
2023-11-05T16:02:40.782Z,14.90
2023-11-05T16:05:04.981Z,14.80
2023-11-05T16:07:30.320Z,14.80
2023-11-05T16:09:54.128Z,15.10
2023-11-05T16:12:18.100Z,15.30
2023-11-05T16:14:42.112Z,15.50
2023-11-05T16:17:06.098Z,15.60
2023-11-05T16:19:30.512Z,15.60
2023-11-05T16:21:54.346Z,15.60
2023-11-05T16:24:20.112Z,15.60
2023-11-05T16:26:44.121Z,15.60
2023-11-05T16:29:08.027Z,15.40
2023-11-05T16:31:32.075Z,15.40
2023-11-05T16:33:57.015Z,15.40
2023-11-05T16:36:21.411Z,15.50
2023-11-05T16:38:45.279Z,15.60
2023-11-05T16:41:14.074Z,15.60
2023-11-05T16:43:38.670Z,15.40
2023-11-05T16:46:02.613Z,15.20
2023-11-05T16:48:27.435Z,15.00
2023-11-05T16:50:51.307Z,14.80
2023-11-05T16:53:17.358Z,14.70
2023-11-05T16:55:43.629Z,14.50
2023-11-05T16:58:08.970Z,14.40
2023-11-05T17:00:33.045Z,14.40
2023-11-05T17:02:57.318Z,14.30
2023-11-05T17:05:24.156Z,14.20
2023-11-05T17:07:48.130Z,14.10
2023-11-05T17:10:12.148Z,14.00
2023-11-05T17:12:36.202Z,13.90
2023-11-05T17:15:03.826Z,13.90
2023-11-05T17:17:28.173Z,13.90
2023-11-05T17:19:52.780Z,13.90
2023-11-05T17:22:19.548Z,13.90
2023-11-05T17:24:43.522Z,13.90
2023-11-05T17:27:07.805Z,14.00
2023-11-05T17:29:32.100Z,14.00
2023-11-05T17:32:02.548Z,14.20
2023-11-05T17:34:27.505Z,14.20
2023-11-05T17:36:54.178Z,14.40
2023-11-05T17:39:18.136Z,14.60
2023-11-05T17:41:42.509Z,14.80
2023-11-05T17:44:06.796Z,14.80
2023-11-05T17:46:32.117Z,14.80
2023-11-05T17:48:57.600Z,14.80
2023-11-05T17:51:22.169Z,14.90
2023-11-05T17:53:46.328Z,15.00
2023-11-05T17:56:11.152Z,15.10
2023-11-05T17:58:36.736Z,15.10
2023-11-05T18:01:02.474Z,15.20
2023-11-05T18:03:26.630Z,15.20
2023-11-05T18:05:52.483Z,15.30
2023-11-05T18:08:16.556Z,15.10
2023-11-05T18:10:50.101Z,15.10
2023-11-05T18:13:16.978Z,15.00
2023-11-05T18:15:41.245Z,14.80
2023-11-05T18:18:05.338Z,14.70
2023-11-05T18:20:31.853Z,14.70
2023-11-05T18:22:57.304Z,14.50
2023-11-05T18:25:21.170Z,14.50
2023-11-05T18:27:46.779Z,14.40
2023-11-05T18:30:15.887Z,14.50
2023-11-05T18:32:41.579Z,14.50
2023-11-05T18:35:06.515Z,14.50
2023-11-05T18:37:31.958Z,14.40
2023-11-05T18:39:59.875Z,14.40
2023-11-05T18:42:23.908Z,14.50
2023-11-05T18:44:50.315Z,14.60
2023-11-05T18:47:17.141Z,14.60
2023-11-05T18:49:42.945Z,14.70
2023-11-05T18:52:07.203Z,14.70
2023-11-05T18:54:34.338Z,14.70
2023-11-05T18:56:59.861Z,14.70
2023-11-05T18:59:26.202Z,14.70
2023-11-05T19:01:54.847Z,14.80
2023-11-05T19:04:19.438Z,14.80
2023-11-05T19:06:43.888Z,14.80
2023-11-05T19:09:10.462Z,14.80
2023-11-05T19:11:36.290Z,14.90
2023-11-05T19:14:13.506Z,14.80
2023-11-05T19:16:43.208Z,14.80
2023-11-05T19:19:07.815Z,14.80
2023-11-05T19:21:38.538Z,14.90
2023-11-05T19:24:05.754Z,14.90
2023-11-05T19:26:30.856Z,14.90
2023-11-05T19:28:59.228Z,14.90
2023-11-05T19:31:25.752Z,14.80
2023-11-05T19:33:50.631Z,14.80
2023-11-05T19:36:14.625Z,14.80
2023-11-05T19:38:38.713Z,14.80
2023-11-05T19:41:05.625Z,14.80
2023-11-05T19:43:29.556Z,14.70
2023-11-05T19:45:53.545Z,14.60
2023-11-05T19:48:19.055Z,14.60
2023-11-05T19:50:46.160Z,14.50
2023-11-05T19:53:16.684Z,14.50
2023-11-05T19:55:45.102Z,14.50
2023-11-05T19:58:10.586Z,14.40
2023-11-05T20:00:36.054Z,14.30
2023-11-05T20:02:59.927Z,14.30
2023-11-05T20:05:28.760Z,14.20
2023-11-05T20:08:09.818Z,14.10
2023-11-05T20:10:34.030Z,14.00
2023-11-05T20:13:00.643Z,14.00
2023-11-05T20:15:25.269Z,13.90
2023-11-05T20:17:52.427Z,13.80
2023-11-05T20:20:17.298Z,13.70
2023-11-05T20:22:43.426Z,13.70
2023-11-05T20:25:08.058Z,13.70
2023-11-05T20:27:32.582Z,13.70
2023-11-05T20:29:57.174Z,13.70
2023-11-05T20:32:23.361Z,13.80
2023-11-05T20:34:47.618Z,13.80
2023-11-05T20:37:30.146Z,13.80
2023-11-05T20:40:01.213Z,13.90
2023-11-05T20:42:26.363Z,13.80
2023-11-05T20:44:53.309Z,13.80
2023-11-05T20:47:17.558Z,13.80
2023-11-05T20:49:41.578Z,13.80
2023-11-05T20:52:06.141Z,13.80
2023-11-05T20:54:33.648Z,13.80
2023-11-05T20:57:01.218Z,13.90
2023-11-05T20:59:25.299Z,13.90
2023-11-05T21:01:49.553Z,14.00
2023-11-05T21:04:15.013Z,14.00
2023-11-05T21:06:39.214Z,14.00
2023-11-05T21:09:03.527Z,14.00
2023-11-05T21:11:37.633Z,14.00
2023-11-05T21:14:04.380Z,13.90
2023-11-05T21:16:28.812Z,13.90
2023-11-05T21:18:52.693Z,13.90
2023-11-05T21:21:17.244Z,13.90
2023-11-05T21:23:41.302Z,13.90
2023-11-05T21:26:05.482Z,13.90
2023-11-05T21:28:29.691Z,13.90
2023-11-05T21:30:56.338Z,14.00
2023-11-05T21:33:20.438Z,14.00
2023-11-05T21:35:44.611Z,14.00
2023-11-05T21:38:08.744Z,14.00
2023-11-05T21:40:32.881Z,14.00
2023-11-05T21:42:57.723Z,14.00
2023-11-05T21:45:23.469Z,14.10
2023-11-05T21:47:49.457Z,14.00
2023-11-05T21:50:13.524Z,14.00
2023-11-05T21:52:38.065Z,14.00
2023-11-05T21:55:02.130Z,14.00
2023-11-05T21:57:26.767Z,13.90
2023-11-05T21:59:50.856Z,13.90
2023-11-05T22:02:15.399Z,13.90
2023-11-05T22:04:42.130Z,13.90
2023-11-05T22:07:06.555Z,13.90
2023-11-05T22:09:33.660Z,13.90
2023-11-05T22:11:57.640Z,13.90
2023-11-05T22:14:21.949Z,13.90
2023-11-05T22:16:46.144Z,13.80
2023-11-05T22:19:10.402Z,13.90
2023-11-05T22:21:35.901Z,13.90
2023-11-05T22:23:59.984Z,13.90
2023-11-05T22:26:25.161Z,13.90
2023-11-05T22:28:49.473Z,13.80
2023-11-05T22:31:13.793Z,13.80
2023-11-05T22:33:38.358Z,13.80
2023-11-05T22:36:03.001Z,13.80
2023-11-05T22:38:29.838Z,13.80
2023-11-05T22:40:55.370Z,13.70
2023-11-05T22:43:19.553Z,13.70
2023-11-05T22:45:43.610Z,13.70
2023-11-05T22:48:08.630Z,13.70
2023-11-05T22:50:32.813Z,13.60
2023-11-05T22:52:56.906Z,13.60
2023-11-05T22:55:23.353Z,13.70
2023-11-05T22:57:47.659Z,13.60
2023-11-05T23:00:18.070Z,13.60
2023-11-05T23:02:44.484Z,13.60
2023-11-05T23:05:08.992Z,13.60
2023-11-05T23:07:33.205Z,13.50
2023-11-05T23:09:57.317Z,13.60
2023-11-05T23:12:22.899Z,13.50
2023-11-05T23:14:47.178Z,13.50
2023-11-05T23:17:11.960Z,13.50
2023-11-05T23:19:37.078Z,13.60
2023-11-05T23:22:01.163Z,13.60
2023-11-05T23:24:25.573Z,13.60
2023-11-05T23:26:49.865Z,13.50
2023-11-05T23:29:16.093Z,13.60
2023-11-05T23:31:42.559Z,13.50
2023-11-05T23:34:06.846Z,13.50
2023-11-05T23:36:31.086Z,13.50
2023-11-05T23:38:55.243Z,13.40
2023-11-05T23:41:22.576Z,13.40
2023-11-05T23:43:46.773Z,13.40
2023-11-05T23:46:12.688Z,13.40
2023-11-05T23:48:37.227Z,13.40
2023-11-05T23:51:01.479Z,13.40
2023-11-05T23:53:27.419Z,13.30
2023-11-05T23:55:51.434Z,13.30
2023-11-05T23:58:17.221Z,13.40
